📊 Raw Sensor Data

Showing records 43751 to 43775 of 85,023 total

ID Distance (ft) Battery V Battery A Int Temp (°F) Int Humid (%) Ext Temp (°F) Solar V RSSI SNR Time Stamp
41285 14.9 3.89 -5 57 44 58 0.00 -69 8 05/22/2025 12:15 AM
41284 14.9 3.89 -5 57 44 59 0.10 -69 8 05/22/2025 12:00 AM
41283 14.9 3.89 -5 58 44 59 0.00 -70 8 05/21/2025 11:45 PM
41282 14.9 3.89 -5 58 44 60 0.00 -70 8 05/21/2025 11:30 PM
41281 14.9 3.89 -5 59 45 61 0.00 -68 8 05/21/2025 11:15 PM
41280 14.9 3.89 -5 59 46 60 0.00 -68 8 05/21/2025 11:00 PM
41279 14.9 3.89 -5 60 46 61 0.00 -69 8 05/21/2025 10:45 PM
41278 14.9 3.89 -5 61 46 61 0.00 -69 8 05/21/2025 10:30 PM
41277 14.9 3.89 -5 62 47 62 0.00 -69 8 05/21/2025 10:15 PM
41276 14.9 3.96 -5 64 47 64 0.00 -68 7 05/21/2025 10:00 PM
41275 14.9 3.96 -5 65 48 65 0.00 -68 8 05/21/2025 09:45 PM
41274 14.9 3.89 -5 67 49 67 0.00 -69 7 05/21/2025 09:30 PM
41273 15.0 3.89 -5 68 50 68 0.00 -68 8 05/21/2025 09:15 PM
41272 15.0 3.96 -5 69 51 69 0.10 -67 7 05/21/2025 09:00 PM
41271 15.3 3.89 -5 71 53 70 0.10 -67 8 05/21/2025 08:45 PM
41270 15.4 3.96 -5 73 55 71 0.80 -69 8 05/21/2025 08:30 PM
41269 15.4 3.90 -10 76 56 73 1.90 -68 8 05/21/2025 08:15 PM
41268 15.4 3.97 0 82 55 77 4.50 -68 7 05/21/2025 08:00 PM
41267 15.5 3.98 0 86 54 81 4.50 -69 7 05/21/2025 07:45 PM
41266 15.5 3.99 7 91 52 85 4.60 -68 7 05/21/2025 07:30 PM
41265 15.5 4.00 10 93 51 87 4.60 -68 7 05/21/2025 07:15 PM
41264 15.5 3.95 14 95 50 88 4.50 -68 7 05/21/2025 07:00 PM
41263 15.5 3.99 11 97 49 89 4.60 -68 8 05/21/2025 06:45 PM
41262 15.5 3.95 0 97 49 90 5.10 -68 7 05/21/2025 06:30 PM
41261 15.5 3.95 0 97 49 89 5.10 -67 7 05/21/2025 06:15 PM